createdAt,value
2023-05-19T00:01:22.158Z,87.18
2023-05-19T00:04:24.840Z,87.74
2023-05-19T00:07:31.094Z,86.75
2023-05-19T00:10:33.917Z,87.37
2023-05-19T00:13:36.899Z,88.13
2023-05-19T00:16:39.749Z,87.40
2023-05-19T00:19:42.474Z,86.99
2023-05-19T00:22:44.981Z,87.52
2023-05-19T00:25:47.448Z,87.31
2023-05-19T00:28:50.950Z,86.96
2023-05-19T00:31:53.420Z,88.20
2023-05-19T00:34:55.929Z,87.00
2023-05-19T00:37:58.403Z,87.77
2023-05-19T00:41:02.111Z,87.47
2023-05-19T00:44:04.835Z,87.38
2023-05-19T00:47:08.325Z,86.93
2023-05-19T00:50:10.999Z,86.82
2023-05-19T00:53:14.978Z,86.64
2023-05-19T00:56:18.394Z,85.67
2023-05-19T00:59:21.098Z,86.30
2023-05-19T01:02:24.080Z,85.49
2023-05-19T01:05:26.889Z,85.85
2023-05-19T01:08:31.688Z,85.64
2023-05-19T01:11:34.122Z,84.86
2023-05-19T01:14:36.611Z,85.70
2023-05-19T01:17:54.794Z,85.05
2023-05-19T01:21:44.493Z,85.16
2023-05-19T01:24:54.844Z,85.71
2023-05-19T01:28:02.890Z,85.59
2023-05-19T01:31:07.475Z,86.17
2023-05-19T01:34:13.116Z,85.33
2023-05-19T01:37:17.738Z,84.89
2023-05-19T01:40:23.869Z,84.51
2023-05-19T01:43:27.153Z,84.83
2023-05-19T01:46:29.669Z,85.57
2023-05-19T01:49:32.192Z,85.35
2023-05-19T01:52:34.621Z,85.97
2023-05-19T01:55:44.839Z,85.58
2023-05-19T01:58:53.101Z,85.33
2023-05-19T02:02:00.530Z,85.69
2023-05-19T02:05:18.649Z,85.14
2023-05-19T02:08:25.949Z,85.15
2023-05-19T02:11:40.035Z,85.34
2023-05-19T02:14:49.702Z,85.35
2023-05-19T02:17:55.654Z,86.60
2023-05-19T02:20:58.290Z,86.12
2023-05-19T02:24:00.872Z,86.83
2023-05-19T02:27:03.874Z,87.10
2023-05-19T02:30:08.307Z,86.52
2023-05-19T02:33:12.512Z,86.60
2023-05-19T02:36:15.136Z,86.58
2023-05-19T02:39:17.827Z,86.86
2023-05-19T02:42:20.960Z,86.98
2023-05-19T02:45:23.913Z,86.45
2023-05-19T02:48:26.379Z,86.29
2023-05-19T02:51:28.794Z,87.21
2023-05-19T02:54:31.796Z,86.12
2023-05-19T02:57:35.036Z,86.93
2023-05-19T03:00:37.514Z,87.27
2023-05-19T03:03:40.042Z,86.69
2023-05-19T03:06:42.578Z,87.34
2023-05-19T03:09:45.003Z,87.26
2023-05-19T03:12:47.378Z,88.10
2023-05-19T03:15:51.210Z,87.56
2023-05-19T03:18:53.877Z,87.81
2023-05-19T03:21:56.571Z,87.32
2023-05-19T03:24:59.129Z,86.95
2023-05-19T03:28:01.744Z,87.77
2023-05-19T03:31:04.294Z,86.72
2023-05-19T03:34:11.900Z,86.39
2023-05-19T03:37:14.384Z,85.67
2023-05-19T03:40:18.924Z,86.69
2023-05-19T03:43:21.623Z,85.71
2023-05-19T03:46:29.740Z,86.26
2023-05-19T03:49:46.012Z,85.80
2023-05-19T03:53:07.286Z,85.19
2023-05-19T03:56:18.135Z,84.81
2023-05-19T03:59:20.646Z,83.89
2023-05-19T04:02:23.095Z,84.24
2023-05-19T04:05:25.791Z,83.80
2023-05-19T04:08:29.436Z,84.10
2023-05-19T04:11:32.023Z,83.47
2023-05-19T04:14:34.449Z,82.67
2023-05-19T04:17:37.143Z,83.22
2023-05-19T04:20:39.593Z,83.09
2023-05-19T04:23:42.154Z,83.04
2023-05-19T04:26:47.095Z,83.67
2023-05-19T04:29:51.245Z,83.54
2023-05-19T04:32:53.797Z,83.36
2023-05-19T04:35:56.840Z,83.29
2023-05-19T04:39:02.767Z,82.58
2023-05-19T04:42:06.470Z,83.87
2023-05-19T04:45:10.452Z,83.06
2023-05-19T04:48:15.955Z,82.94
2023-05-19T04:51:18.375Z,81.16
2023-05-19T04:54:21.389Z,80.76
2023-05-19T04:57:23.919Z,81.55
2023-05-19T05:00:26.771Z,80.11
2023-05-19T05:03:35.458Z,79.98
2023-05-19T05:06:42.520Z,78.44
2023-05-19T05:09:45.576Z,78.85
2023-05-19T05:12:48.336Z,78.73
2023-05-19T05:15:54.578Z,78.37
2023-05-19T05:18:57.867Z,78.20
2023-05-19T05:22:01.006Z,78.01
2023-05-19T05:25:04.287Z,76.65
2023-05-19T05:28:06.808Z,76.62
2023-05-19T05:31:11.753Z,76.61
2023-05-19T05:34:17.681Z,75.91
2023-05-19T05:37:20.509Z,75.78
2023-05-19T05:40:22.992Z,76.34
2023-05-19T05:43:25.853Z,74.39
2023-05-19T05:46:33.569Z,75.05
2023-05-19T05:49:38.154Z,72.90
2023-05-19T05:52:42.572Z,73.68
2023-05-19T05:55:47.206Z,71.56
2023-05-19T05:58:50.747Z,69.56
2023-05-19T06:01:53.270Z,66.14
2023-05-19T06:04:56.280Z,64.77
2023-05-19T06:07:58.868Z,62.00
2023-05-19T06:11:08.456Z,61.61
2023-05-19T06:14:11.837Z,59.92
2023-05-19T06:17:37.418Z,56.91
2023-05-19T06:20:39.899Z,57.65
2023-05-19T06:23:42.458Z,56.89
2023-05-19T06:26:46.390Z,57.49
2023-05-19T06:29:48.884Z,56.75
2023-05-19T06:32:51.354Z,56.98
2023-05-19T06:35:53.903Z,59.02
2023-05-19T06:38:57.664Z,59.07
2023-05-19T06:42:00.890Z,54.42
2023-05-19T06:45:23.947Z,50.13
2023-05-19T06:48:27.575Z,53.48
2023-05-19T06:51:30.088Z,53.15
2023-05-19T06:54:32.739Z,48.39
2023-05-19T06:57:36.249Z,49.06
2023-05-19T07:00:39.373Z,48.05
2023-05-19T07:03:44.163Z,49.65
2023-05-19T07:06:50.251Z,48.01
2023-05-19T07:09:53.188Z,47.18
2023-05-19T07:12:58.213Z,42.98
2023-05-19T07:16:04.172Z,39.12
2023-05-19T07:19:06.771Z,39.42
2023-05-19T07:22:09.328Z,39.42
2023-05-19T07:25:11.796Z,38.06
2023-05-19T07:28:15.025Z,39.84
2023-05-19T07:31:17.624Z,37.09
2023-05-19T07:34:20.900Z,37.99
2023-05-19T07:37:23.367Z,36.39
2023-05-19T07:40:25.783Z,39.51
2023-05-19T07:43:28.281Z,36.91
2023-05-19T07:46:30.800Z,37.55
2023-05-19T07:49:33.291Z,38.28
2023-05-19T07:52:35.933Z,38.60
2023-05-19T07:55:38.329Z,37.36
2023-05-19T07:58:40.846Z,39.71
2023-05-19T08:01:43.365Z,40.54
2023-05-19T08:04:45.912Z,38.13
2023-05-19T08:07:48.463Z,38.14
2023-05-19T08:10:50.998Z,36.69
2023-05-19T08:13:53.606Z,38.80
2023-05-19T08:16:56.369Z,39.31
2023-05-19T08:20:00.387Z,39.46
2023-05-19T08:23:02.849Z,37.93
2023-05-19T08:26:05.690Z,37.19
2023-05-19T08:29:08.165Z,39.99
2023-05-19T08:32:13.045Z,39.63
2023-05-19T08:35:15.940Z,37.81
2023-05-19T08:38:18.442Z,39.64
2023-05-19T08:41:21.787Z,38.25
2023-05-19T08:44:24.189Z,38.88
2023-05-19T08:47:27.970Z,38.21
2023-05-19T08:50:36.445Z,40.53
2023-05-19T08:53:44.064Z,38.00
2023-05-19T08:56:47.302Z,36.05
2023-05-19T08:59:54.349Z,37.82
2023-05-19T09:03:05.982Z,39.85
2023-05-19T09:06:19.771Z,36.62
2023-05-19T09:09:22.289Z,36.29
2023-05-19T09:12:24.741Z,39.68
2023-05-19T09:15:28.422Z,38.74
2023-05-19T09:18:31.503Z,39.04
2023-05-19T09:21:34.055Z,41.19
2023-05-19T09:24:37.935Z,40.40
2023-05-19T09:27:40.366Z,39.77
2023-05-19T09:30:42.766Z,37.94
2023-05-19T09:33:46.281Z,36.00
2023-05-19T09:36:53.439Z,36.71
2023-05-19T09:39:56.602Z,35.59
2023-05-19T09:42:59.052Z,37.53
2023-05-19T09:46:09.604Z,38.61
2023-05-19T09:49:14.351Z,39.04
2023-05-19T09:52:16.797Z,37.56
2023-05-19T09:55:23.265Z,39.18
2023-05-19T09:58:27.100Z,38.23
2023-05-19T10:01:33.697Z,38.07
2023-05-19T10:04:36.661Z,35.44
2023-05-19T10:07:40.583Z,36.37
2023-05-19T10:10:43.371Z,35.35
2023-05-19T10:13:47.205Z,34.35
2023-05-19T10:16:52.448Z,37.18
2023-05-19T10:19:55.214Z,36.64
2023-05-19T10:22:57.638Z,38.68
2023-05-19T10:26:04.159Z,37.74
2023-05-19T10:29:06.957Z,36.95
2023-05-19T10:32:17.581Z,36.56
2023-05-19T10:35:22.615Z,37.96
2023-05-19T10:38:43.119Z,38.57
2023-05-19T10:42:07.143Z,37.78
2023-05-19T10:45:16.328Z,37.64
2023-05-19T10:48:23.085Z,35.86
2023-05-19T10:51:32.185Z,38.94
2023-05-19T10:54:43.452Z,37.75
2023-05-19T10:57:58.577Z,37.80
2023-05-19T11:01:01.582Z,37.88
2023-05-19T11:04:06.318Z,37.83
2023-05-19T11:07:10.534Z,36.89
2023-05-19T11:10:13.331Z,38.18
2023-05-19T11:13:22.705Z,39.27
2023-05-19T11:16:28.657Z,35.55
2023-05-19T11:19:34.478Z,39.30
2023-05-19T11:22:37.205Z,36.32
2023-05-19T11:25:47.093Z,36.85
2023-05-19T11:28:49.761Z,36.19
2023-05-19T11:31:52.311Z,37.47
2023-05-19T11:34:56.087Z,35.70
2023-05-19T11:37:59.113Z,38.77
2023-05-19T11:41:01.595Z,37.76
2023-05-19T11:44:04.058Z,38.69
2023-05-19T11:47:06.744Z,38.20
2023-05-19T11:50:11.433Z,37.44
2023-05-19T11:53:14.831Z,39.26
2023-05-19T11:56:17.240Z,38.45
2023-05-19T11:59:34.829Z,37.44
2023-05-19T12:02:38.189Z,36.50
2023-05-19T12:05:46.006Z,35.94
2023-05-19T12:08:51.963Z,34.87
2023-05-19T12:11:55.186Z,35.83
2023-05-19T12:14:57.722Z,37.47
2023-05-19T12:18:02.014Z,35.05
2023-05-19T12:21:05.115Z,37.61
2023-05-19T12:24:07.736Z,35.33
2023-05-19T12:27:14.277Z,36.09
2023-05-19T12:30:17.056Z,36.06
2023-05-19T12:33:22.951Z,36.85
2023-05-19T12:36:25.494Z,34.65
2023-05-19T12:39:28.941Z,33.44
2023-05-19T12:42:31.666Z,38.42
2023-05-19T12:45:35.480Z,35.66
2023-05-19T12:48:43.277Z,37.82
2023-05-19T12:51:52.476Z,38.28
2023-05-19T12:55:07.196Z,35.66
2023-05-19T12:58:11.574Z,38.45
2023-05-19T13:01:18.793Z,36.24
2023-05-19T13:04:21.332Z,39.78
2023-05-19T13:07:24.452Z,39.32
2023-05-19T13:10:27.841Z,39.30
2023-05-19T13:13:30.242Z,36.95
2023-05-19T13:16:32.651Z,36.74
2023-05-19T13:19:35.128Z,36.28
2023-05-19T13:22:37.944Z,40.12
2023-05-19T13:25:41.405Z,38.78
2023-05-19T13:28:43.886Z,38.80
2023-05-19T13:31:46.379Z,38.07
2023-05-19T13:34:48.997Z,37.45
2023-05-19T13:37:51.390Z,37.78
2023-05-19T13:40:53.883Z,38.37
2023-05-19T13:43:59.787Z,38.36
2023-05-19T13:47:02.331Z,41.42
2023-05-19T13:50:05.774Z,40.51
2023-05-19T13:53:08.495Z,42.20
2023-05-19T13:56:10.977Z,44.75
2023-05-19T13:59:13.611Z,46.00
2023-05-19T14:02:16.288Z,47.24
2023-05-19T14:05:18.834Z,44.33
2023-05-19T14:08:22.139Z,45.04
2023-05-19T14:11:24.658Z,47.72
2023-05-19T14:14:27.193Z,47.40
2023-05-19T14:17:29.647Z,44.57
2023-05-19T14:20:32.351Z,45.23
2023-05-19T14:23:34.900Z,44.73
2023-05-19T14:26:37.267Z,44.64
2023-05-19T14:29:39.744Z,45.31
2023-05-19T14:32:42.225Z,46.19
2023-05-19T14:35:44.756Z,45.76
2023-05-19T14:38:47.186Z,49.48
2023-05-19T14:41:51.045Z,49.20
2023-05-19T14:44:53.498Z,51.29
2023-05-19T14:47:56.043Z,51.59
2023-05-19T14:50:58.468Z,51.20
2023-05-19T14:54:02.310Z,52.10
2023-05-19T14:57:07.295Z,51.39
2023-05-19T15:00:10.437Z,50.61
2023-05-19T15:03:14.789Z,46.76
2023-05-19T15:06:17.447Z,51.30
2023-05-19T15:09:19.871Z,49.25
2023-05-19T15:12:22.407Z,49.46
2023-05-19T15:15:24.831Z,47.71
2023-05-19T15:18:27.250Z,47.73
2023-05-19T15:21:29.701Z,47.02
2023-05-19T15:24:32.121Z,49.79
2023-05-19T15:27:36.349Z,50.91
2023-05-19T15:30:38.803Z,51.06
2023-05-19T15:33:41.388Z,51.63
2023-05-19T15:36:43.921Z,52.25
2023-05-19T15:39:46.376Z,52.54
2023-05-19T15:42:48.784Z,51.49
2023-05-19T15:45:54.863Z,52.52
2023-05-19T15:48:57.276Z,53.20
2023-05-19T15:51:59.652Z,51.42
2023-05-19T15:55:02.092Z,52.61
2023-05-19T15:58:04.579Z,53.04
2023-05-19T16:01:07.441Z,53.68
2023-05-19T16:04:09.911Z,55.30
2023-05-19T16:07:12.300Z,53.08
2023-05-19T16:10:14.860Z,54.55
2023-05-19T16:13:17.304Z,52.24
2023-05-19T16:16:19.823Z,53.21
2023-05-19T16:19:23.854Z,54.36
2023-05-19T16:22:27.217Z,53.74
2023-05-19T16:25:29.789Z,55.80
2023-05-19T16:28:32.569Z,54.57
2023-05-19T16:31:35.016Z,56.09
2023-05-19T16:34:37.472Z,56.87
2023-05-19T16:37:40.198Z,56.73
2023-05-19T16:40:42.613Z,57.51
2023-05-19T16:43:45.026Z,58.93
2023-05-19T16:46:47.455Z,60.16
2023-05-19T16:49:49.834Z,60.48
2023-05-19T16:52:52.202Z,59.14
2023-05-19T16:55:54.693Z,61.99
2023-05-19T16:58:57.137Z,63.03
2023-05-19T17:01:59.615Z,63.67
2023-05-19T17:05:02.046Z,62.71
2023-05-19T17:08:05.741Z,63.06
2023-05-19T17:11:08.293Z,63.47
2023-05-19T17:14:11.078Z,62.79
2023-05-19T17:17:13.519Z,62.98
2023-05-19T17:20:16.290Z,62.50
2023-05-19T17:23:18.697Z,65.10
2023-05-19T17:26:22.167Z,64.57
2023-05-19T17:29:24.809Z,63.62
2023-05-19T17:32:29.111Z,64.08
2023-05-19T17:35:33.413Z,65.73
2023-05-19T17:38:40.113Z,68.67
2023-05-19T17:41:43.693Z,67.91
2023-05-19T17:44:46.173Z,69.94
2023-05-19T17:47:48.673Z,70.39
2023-05-19T17:50:51.122Z,71.69
2023-05-19T17:53:53.933Z,72.25
2023-05-19T17:56:58.582Z,72.28
2023-05-19T18:00:01.553Z,72.29
2023-05-19T18:03:06.247Z,70.79
2023-05-19T18:06:09.190Z,70.79
2023-05-19T18:09:14.334Z,71.44
2023-05-19T18:12:17.575Z,71.25
2023-05-19T18:15:19.984Z,73.32
2023-05-19T18:18:22.442Z,72.76
2023-05-19T18:21:25.303Z,71.56
2023-05-19T18:24:27.775Z,70.22
2023-05-19T18:27:31.409Z,70.09
2023-05-19T18:30:34.037Z,68.17
2023-05-19T18:33:36.711Z,65.76
2023-05-19T18:36:39.075Z,65.49
2023-05-19T18:39:41.453Z,67.00
2023-05-19T18:42:43.951Z,66.65
2023-05-19T18:45:49.310Z,67.17
2023-05-19T18:48:51.741Z,67.94
2023-05-19T18:51:54.204Z,65.43
2023-05-19T18:54:56.710Z,66.86
2023-05-19T18:57:59.240Z,66.10
2023-05-19T19:01:01.715Z,66.77
2023-05-19T19:04:04.340Z,69.63
2023-05-19T19:07:06.857Z,72.51
2023-05-19T19:10:09.617Z,71.44
2023-05-19T19:13:12.074Z,73.24
2023-05-19T19:16:14.538Z,74.48
2023-05-19T19:19:17.018Z,76.88
2023-05-19T19:22:19.490Z,76.78
2023-05-19T19:25:23.534Z,78.06
2023-05-19T19:28:26.557Z,79.00
2023-05-19T19:31:29.103Z,78.78
2023-05-19T19:34:31.735Z,79.36
2023-05-19T19:37:34.106Z,80.84
2023-05-19T19:40:36.805Z,80.60
2023-05-19T19:43:39.374Z,80.78
2023-05-19T19:46:41.808Z,81.68
2023-05-19T19:49:45.842Z,82.62
2023-05-19T19:52:48.293Z,81.88
2023-05-19T19:55:57.648Z,82.04
2023-05-19T19:59:00.283Z,82.53
2023-05-19T20:02:02.849Z,81.49
2023-05-19T20:05:05.839Z,81.03
2023-05-19T20:08:08.650Z,80.91
2023-05-19T20:11:11.132Z,80.22
2023-05-19T20:14:13.515Z,80.59
2023-05-19T20:17:16.030Z,80.56
2023-05-19T20:20:18.440Z,81.43
2023-05-19T20:23:21.330Z,82.11
2023-05-19T20:26:24.374Z,83.34
2023-05-19T20:29:27.329Z,83.92
2023-05-19T20:32:29.742Z,84.93
2023-05-19T20:35:32.363Z,84.83
2023-05-19T20:38:34.998Z,84.52
2023-05-19T20:41:37.492Z,84.42
2023-05-19T20:44:39.865Z,84.56
2023-05-19T20:47:42.259Z,86.05
2023-05-19T20:50:44.745Z,84.14
2023-05-19T20:53:47.201Z,84.20
2023-05-19T20:56:51.087Z,83.70
2023-05-19T20:59:53.561Z,83.74
2023-05-19T21:02:56.046Z,83.79
2023-05-19T21:05:58.507Z,84.33
2023-05-19T21:09:03.807Z,85.06
2023-05-19T21:12:06.338Z,84.66
2023-05-19T21:15:09.870Z,85.32
2023-05-19T21:18:12.835Z,85.01
2023-05-19T21:21:15.396Z,85.43
2023-05-19T21:24:17.875Z,85.51
2023-05-19T21:27:20.385Z,85.41
2023-05-19T21:30:23.639Z,84.95
2023-05-19T21:33:26.019Z,85.15
2023-05-19T21:36:28.445Z,84.64
2023-05-19T21:39:30.821Z,84.79
2023-05-19T21:42:33.183Z,84.61
2023-05-19T21:45:35.616Z,84.39
2023-05-19T21:48:38.077Z,84.54
2023-05-19T21:51:40.582Z,84.98
2023-05-19T21:54:43.148Z,85.36
2023-05-19T21:57:45.546Z,85.50
2023-05-19T22:00:50.008Z,85.49
2023-05-19T22:03:53.077Z,85.18
2023-05-19T22:06:55.507Z,85.02
2023-05-19T22:09:57.855Z,85.11
2023-05-19T22:13:00.274Z,85.49
2023-05-19T22:16:04.673Z,86.31
2023-05-19T22:19:07.368Z,86.52
2023-05-19T22:22:14.419Z,87.53
2023-05-19T22:25:17.149Z,87.64
2023-05-19T22:28:19.531Z,87.96
2023-05-19T22:31:21.952Z,87.35
2023-05-19T22:34:24.390Z,88.17
2023-05-19T22:37:28.889Z,87.28
2023-05-19T22:40:32.544Z,87.21
2023-05-19T22:43:35.202Z,86.84
2023-05-19T22:46:37.684Z,85.36
2023-05-19T22:49:41.277Z,87.41
2023-05-19T22:52:43.727Z,86.06
2023-05-19T22:55:46.228Z,86.60
2023-05-19T22:58:48.642Z,87.70
2023-05-19T23:01:51.134Z,89.21
2023-05-19T23:04:53.622Z,88.75
2023-05-19T23:07:56.173Z,88.94
2023-05-19T23:11:02.280Z,88.14
2023-05-19T23:14:04.764Z,87.95
2023-05-19T23:17:07.390Z,86.63
2023-05-19T23:20:10.640Z,87.38
2023-05-19T23:23:13.223Z,87.88
2023-05-19T23:26:15.655Z,88.14
2023-05-19T23:29:18.136Z,86.80
2023-05-19T23:32:20.537Z,88.03
2023-05-19T23:35:22.906Z,88.91
2023-05-19T23:38:25.740Z,89.22
2023-05-19T23:41:28.198Z,89.26
2023-05-19T23:44:30.705Z,89.88
2023-05-19T23:47:33.089Z,89.70
2023-05-19T23:50:35.723Z,88.78
2023-05-19T23:53:38.228Z,89.05
2023-05-19T23:56:40.786Z,89.09
2023-05-19T23:59:43.179Z,89.58
